Time;durP1;ratioP1;P1;durP2;ratioP2;P2;SDS_P1;SDS_P2;PMS_P1;PMS_P2;Temp;Humidity;BMP_temperature;BMP_pressure;BME280_temperature;BME280_humidity;BME280_pressure;Samples;Min_cycle;Max_cycle;Signal;HPM_P1;HPM_P2
2023/08/07 00:02:15;;;;;;;;;;;;;;;17.20;100.00;97247.41;5142305;28;19919;-72
2023/08/07 00:04:41;;;;;;;;;;;;;;;17.13;100.00;97255.19;5142848;27;19935;-72
2023/08/07 00:07:07;;;;;;;;;;;;;;;16.98;100.00;97243.03;5126203;27;19959;-72
2023/08/07 00:09:33;;;;;;;;;;;;;;;17.21;100.00;97241.69;5129437;27;19923;-72
2023/08/07 00:12:00;;;;;;;;;;;;;;;17.15;100.00;97242.97;5129489;27;19923;-72
2023/08/07 00:14:28;;;;;;;;;;;;;;;17.37;100.00;97249.25;5144634;27;19967;-72
2023/08/07 00:16:54;;;;;;;;;;;;;;;17.10;100.00;97231.56;5135275;28;19923;-72
2023/08/07 00:19:20;;;;;;;;;;;;;;;17.20;100.00;97242.81;5145797;27;19983;-71
2023/08/07 00:21:47;;;;;;;;;;;;;;;17.27;100.00;97237.69;5128985;27;19969;-71
2023/08/07 00:24:13;;;;;;;;;;;;;;;17.15;100.00;97245.66;5146282;27;19923;-72
2023/08/07 00:26:39;;;;;;;;;;;;;;;17.19;100.00;97245.81;5143742;27;19958;-71
2023/08/07 00:29:06;;;;;;;;;;;;;;;17.17;100.00;97243.47;5143788;27;19934;-72
2023/08/07 00:31:33;;;;;;;;;;;;;;;17.09;100.00;97244.25;5135146;28;19927;-72
2023/08/07 00:34:00;;;;;;;;;;;;;;;16.94;100.00;97239.38;5135097;28;19962;-72
2023/08/07 00:36:28;;;;;;;;;;;;;;;16.97;100.00;97238.72;5134982;28;19953;-72
2023/08/07 00:38:55;;;;;;;;;;;;;;;17.09;100.00;97238.84;5135094;28;19923;-72
2023/08/07 00:41:21;;;;;;;;;;;;;;;16.93;100.00;97234.31;5134885;28;19923;-72
2023/08/07 00:43:48;;;;;;;;;;;;;;;17.13;100.00;97236.31;5134933;28;19923;-72
2023/08/07 00:46:15;;;;;;;;;;;;;;;17.07;100.00;97238.41;5134842;28;19950;-72
2023/08/07 00:48:42;;;;;;;;;;;;;;;17.09;100.00;97233.47;5135065;28;19924;-72
2023/08/07 00:51:09;;;;;;;;;;;;;;;17.07;100.00;97227.59;5116598;28;19927;-72
2023/08/07 00:53:38;;;;;;;;;;;;;;;17.10;100.00;97242.34;5134890;28;19924;-72
2023/08/07 00:56:05;;;;;;;;;;;;;;;17.06;100.00;97236.00;5134832;28;19984;-72
2023/08/07 00:58:32;;;;;;;;;;;;;;;16.99;100.00;97227.63;5143272;27;19974;-72
2023/08/07 01:00:58;;;;;;;;;;;;;;;16.77;100.00;97231.31;5143319;27;19930;-72
2023/08/07 01:03:25;;;;;;;;;;;;;;;16.77;100.00;97236.69;5146171;27;19924;-72
2023/08/07 01:05:53;;;;;;;;;;;;;;;16.90;100.00;97235.72;5147216;27;19924;-72
2023/08/07 01:08:20;;;;;;;;;;;;;;;16.88;100.00;97232.56;5144811;27;20268;-72
2023/08/07 01:10:55;;;;;;;;;;;;;;;16.86;100.00;97229.41;5143019;27;19983;-72
2023/08/07 01:13:25;;;;;;;;;;;;;;;17.01;100.00;97228.88;5145301;27;19991;-72
2023/08/07 01:15:53;;;;;;;;;;;;;;;16.93;100.00;97229.69;5139017;27;19924;-72
2023/08/07 01:18:20;;;;;;;;;;;;;;;16.78;100.00;97230.19;5142925;27;20266;-72
2023/08/07 01:20:46;;;;;;;;;;;;;;;16.71;100.00;97229.88;5142652;27;19990;-72
2023/08/07 01:23:14;;;;;;;;;;;;;;;16.92;100.00;97225.41;5143542;27;19934;-71
2023/08/07 01:25:40;;;;;;;;;;;;;;;16.80;100.00;97229.88;5128095;27;19934;-71
2023/08/07 01:28:12;;;;;;;;;;;;;;;16.98;100.00;97234.94;5127889;27;19995;-72
2023/08/07 01:30:41;;;;;;;;;;;;;;;16.97;100.00;97236.03;5142644;27;19924;-73
2023/08/07 01:33:10;;;;;;;;;;;;;;;16.74;100.00;97229.25;5142601;27;20076;-72
2023/08/07 01:35:41;;;;;;;;;;;;;;;16.78;100.00;97237.47;5145944;27;20440;-72
2023/08/07 01:38:08;;;;;;;;;;;;;;;17.01;100.00;97228.88;5127506;27;19927;-72
2023/08/07 01:40:38;;;;;;;;;;;;;;;17.05;100.00;97235.22;5142346;27;19962;-72
2023/08/07 01:43:05;;;;;;;;;;;;;;;17.02;100.00;97230.47;5142433;27;19959;-72
2023/08/07 01:45:31;;;;;;;;;;;;;;;16.97;100.00;97235.22;5142224;27;19990;-72
2023/08/07 01:47:57;;;;;;;;;;;;;;;17.04;100.00;97236.34;5140833;27;19934;-71
2023/08/07 01:50:24;;;;;;;;;;;;;;;16.85;100.00;97227.81;5143087;27;19923;-71
2023/08/07 01:52:51;;;;;;;;;;;;;;;16.79;100.00;97231.78;5123930;28;19930;-72
2023/08/07 01:55:18;;;;;;;;;;;;;;;16.95;100.00;97232.88;5143717;27;19928;-71
2023/08/07 01:57:46;;;;;;;;;;;;;;;16.88;100.00;97237.94;5127391;27;19930;-71
2023/08/07 02:00:12;;;;;;;;;;;;;;;16.97;100.00;97230.63;5144903;27;19923;-72
2023/08/07 02:02:39;;;;;;;;;;;;;;;16.78;100.00;97243.66;5141966;27;19967;-72
2023/08/07 02:05:05;;;;;;;;;;;;;;;16.76;100.00;97243.19;5142109;27;19951;-72
2023/08/07 02:07:32;;;;;;;;;;;;;;;16.49;100.00;97238.09;5133777;28;19967;-72
2023/08/07 02:09:58;;;;;;;;;;;;;;;16.59;100.00;97246.69;5133593;28;19973;-72
2023/08/07 02:12:26;;;;;;;;;;;;;;;16.49;100.00;97241.59;5133507;28;19970;-72
2023/08/07 02:14:54;;;;;;;;;;;;;;;16.53;100.00;97247.13;5133534;28;19923;-72
2023/08/07 02:17:21;;;;;;;;;;;;;;;16.48;100.00;97260.78;5133137;28;19935;-72
2023/08/07 02:19:47;;;;;;;;;;;;;;;16.57;100.00;97257.00;5133548;28;19967;-72
2023/08/07 02:22:14;;;;;;;;;;;;;;;16.59;100.00;97249.38;5133054;28;19924;-72
2023/08/07 02:24:40;;;;;;;;;;;;;;;16.60;100.00;97252.88;5114981;28;19971;-72
2023/08/07 02:27:06;;;;;;;;;;;;;;;16.59;100.00;97249.38;5133028;28;19950;-72
2023/08/07 02:29:34;;;;;;;;;;;;;;;16.72;100.00;97263.81;5114796;28;19991;-72
2023/08/07 02:32:02;;;;;;;;;;;;;;;16.79;100.00;97250.66;5141575;27;19967;-72
2023/08/07 02:34:29;;;;;;;;;;;;;;;16.65;100.00;97255.41;5144804;27;19987;-72
2023/08/07 02:36:55;;;;;;;;;;;;;;;16.73;100.00;97258.13;5145353;27;19990;-72
2023/08/07 02:39:21;;;;;;;;;;;;;;;16.63;100.00;97249.53;5124530;27;20307;-72
2023/08/07 02:41:48;;;;;;;;;;;;;;;16.62;100.00;97258.72;5123255;28;19955;-72
2023/08/07 02:44:14;;;;;;;;;;;;;;;16.54;100.00;97260.34;5142538;27;19962;-72
2023/08/07 02:46:41;;;;;;;;;;;;;;;16.54;100.00;97265.72;5138556;27;19934;-72
2023/08/07 02:49:09;;;;;;;;;;;;;;;16.47;100.00;97265.34;5141441;27;19961;-72
2023/08/07 02:51:35;;;;;;;;;;;;;;;16.43;100.00;97263.63;5126735;27;19923;-72
2023/08/07 02:54:01;;;;;;;;;;;;;;;16.46;100.00;97265.69;5145077;27;20017;-72
2023/08/07 02:56:28;;;;;;;;;;;;;;;16.30;100.00;97269.94;5141704;27;19928;-72
2023/08/07 02:58:54;;;;;;;;;;;;;;;16.36;100.00;97264.09;5141181;27;19967;-72
2023/08/07 03:01:20;;;;;;;;;;;;;;;16.34;100.00;97262.84;5142946;27;19924;-73
2023/08/07 03:03:47;;;;;;;;;;;;;;;16.35;100.00;97277.88;5144478;27;19924;-73
2023/08/07 03:06:14;;;;;;;;;;;;;;;16.26;100.00;97269.78;5143466;27;19962;-72
2023/08/07 03:08:42;;;;;;;;;;;;;;;16.36;100.00;97276.78;5141084;27;19935;-72
2023/08/07 03:11:09;;;;;;;;;;;;;;;16.24;100.00;97279.28;5141130;27;19928;-72
2023/08/07 03:13:35;;;;;;;;;;;;;;;16.36;100.00;97274.06;5144423;27;19924;-72
2023/08/07 03:16:02;;;;;;;;;;;;;;;16.24;100.00;97282.78;5136427;27;19930;-72
2023/08/07 03:18:28;;;;;;;;;;;;;;;16.20;100.00;97288.00;5117283;27;19934;-72
2023/08/07 03:20:55;;;;;;;;;;;;;;;16.27;100.00;97302.91;5144132;27;19924;-72
2023/08/07 03:23:22;;;;;;;;;;;;;;;16.29;100.00;97296.09;5142124;27;19949;-73
2023/08/07 03:25:49;;;;;;;;;;;;;;;16.26;100.00;97306.69;5140630;27;20002;-72
2023/08/07 03:28:15;;;;;;;;;;;;;;;16.27;100.00;97298.31;5123536;27;19995;-72
2023/08/07 03:30:42;;;;;;;;;;;;;;;16.20;100.00;97309.56;5144060;27;19987;-72
2023/08/07 03:33:08;;;;;;;;;;;;;;;16.15;100.00;97320.47;5143841;27;19928;-72
2023/08/07 03:35:35;;;;;;;;;;;;;;;16.10;100.00;97315.22;5140335;27;19923;-72
2023/08/07 03:38:01;;;;;;;;;;;;;;;16.29;100.00;97314.16;5139902;27;19974;-72
2023/08/07 03:40:29;;;;;;;;;;;;;;;16.33;100.00;97318.63;5143154;27;19961;-72
2023/08/07 03:42:55;;;;;;;;;;;;;;;16.19;100.00;97324.13;5143707;27;19986;-72
2023/08/07 03:45:21;;;;;;;;;;;;;;;16.08;100.00;97330.13;5140286;27;19983;-72
2023/08/07 03:47:47;;;;;;;;;;;;;;;16.14;100.00;97343.13;5137762;27;19924;-72
2023/08/07 03:50:14;;;;;;;;;;;;;;;16.20;100.00;97336.50;5142720;27;19955;-72
2023/08/07 03:52:40;;;;;;;;;;;;;;;16.15;100.00;97344.69;5140306;28;19967;-72
2023/08/07 03:55:07;;;;;;;;;;;;;;;16.14;100.00;97358.50;5140162;28;19959;-72
2023/08/07 03:57:34;;;;;;;;;;;;;;;16.24;100.00;97352.03;5113658;28;19967;-72
2023/08/07 04:00:01;;;;;;;;;;;;;;;16.27;100.00;97351.41;5131708;28;19996;-72
2023/08/07 04:02:29;;;;;;;;;;;;;;;16.10;100.00;97358.31;5131260;28;19970;-72
2023/08/07 04:04:55;;;;;;;;;;;;;;;16.13;100.00;97368.47;5121821;28;20267;-70
2023/08/07 04:07:21;;;;;;;;;;;;;;;16.15;100.00;97358.16;5140152;28;19923;-71
2023/08/07 04:09:48;;;;;;;;;;;;;;;16.25;100.00;97375.94;5140232;28;19962;-72
2023/08/07 04:12:14;;;;;;;;;;;;;;;16.26;100.00;97376.75;5141127;28;19987;-72
2023/08/07 04:14:42;;;;;;;;;;;;;;;16.11;100.00;97376.09;5143593;28;20014;-72
2023/08/07 04:17:08;;;;;;;;;;;;;;;16.01;100.00;97370.97;5133548;28;19927;-72
2023/08/07 04:19:35;;;;;;;;;;;;;;;16.02;100.00;97380.66;5125489;28;19990;-72
2023/08/07 04:22:01;;;;;;;;;;;;;;;15.90;100.00;97385.00;5143498;28;19962;-71
2023/08/07 04:24:27;;;;;;;;;;;;;;;16.06;100.00;97395.06;5140896;28;19987;-71
2023/08/07 04:26:54;;;;;;;;;;;;;;;16.21;100.00;97396.56;5121772;28;19983;-72
2023/08/07 04:29:20;;;;;;;;;;;;;;;16.16;100.00;97397.47;5142294;28;20004;-73
2023/08/07 04:31:48;;;;;;;;;;;;;;;16.11;100.00;97396.84;5143431;28;19943;-73
2023/08/07 04:34:14;;;;;;;;;;;;;;;16.13;100.00;97400.00;5142352;28;19924;-74
2023/08/07 04:36:41;;;;;;;;;;;;;;;16.06;100.00;97403.13;5121622;28;19931;-74
2023/08/07 04:39:07;;;;;;;;;;;;;;;16.13;100.00;97405.38;5121592;28;19959;-73
2023/08/07 04:41:33;;;;;;;;;;;;;;;16.06;100.00;97400.44;5143271;28;19942;-73
2023/08/07 04:44:00;;;;;;;;;;;;;;;16.14;100.00;97406.97;5125208;28;19967;-73
2023/08/07 04:46:27;;;;;;;;;;;;;;;16.11;100.00;97418.38;5132162;28;19955;-73
2023/08/07 04:48:55;;;;;;;;;;;;;;;16.11;100.00;97413.78;5124670;28;19980;-73
2023/08/07 04:51:22;;;;;;;;;;;;;;;16.10;100.00;97422.97;5145328;27;19967;-73
2023/08/07 04:53:50;;;;;;;;;;;;;;;16.13;100.00;97414.25;5147145;27;19923;-73
2023/08/07 04:56:16;;;;;;;;;;;;;;;15.94;100.00;97421.78;5145494;27;19976;-73
2023/08/07 04:58:43;;;;;;;;;;;;;;;15.85;100.00;97428.22;5143434;27;19966;-74
2023/08/07 05:01:09;;;;;;;;;;;;;;;15.95;100.00;97419.88;5143557;27;19938;-73
2023/08/07 05:03:35;;;;;;;;;;;;;;;16.07;100.00;97428.97;5146670;27;19923;-73
2023/08/07 05:06:03;;;;;;;;;;;;;;;16.19;100.00;97439.97;5146887;27;19975;-72
2023/08/07 05:08:30;;;;;;;;;;;;;;;16.00;100.00;97435.94;5125450;27;19950;-72
2023/08/07 05:10:56;;;;;;;;;;;;;;;16.09;100.00;97442.91;5143072;27;19963;-73
2023/08/07 05:13:22;;;;;;;;;;;;;;;15.95;100.00;97439.53;5145328;27;19996;-73
2023/08/07 05:15:49;;;;;;;;;;;;;;;15.82;100.00;97437.72;5140738;27;19991;-72
2023/08/07 05:18:15;;;;;;;;;;;;;;;15.94;100.00;97440.63;5143131;27;19924;-72
2023/08/07 05:20:41;;;;;;;;;;;;;;;15.92;100.00;97448.22;5142971;27;19979;-73
2023/08/07 05:23:10;;;;;;;;;;;;;;;16.01;100.00;97450.97;5143032;27;19951;-73
2023/08/07 05:25:36;;;;;;;;;;;;;;;16.05;100.00;97463.50;5146520;27;19931;-73
2023/08/07 05:28:03;;;;;;;;;;;;;;;15.93;100.00;97457.91;5128249;27;19962;-73
2023/08/07 05:30:29;;;;;;;;;;;;;;;15.46;100.00;97456.59;5124980;27;19924;-73
2023/08/07 05:32:55;;;;;;;;;;;;;;;15.61;100.00;97468.91;5142968;27;19980;-73
2023/08/07 05:35:22;;;;;;;;;;;;;;;15.44;100.00;97463.41;5126654;27;19958;-73
2023/08/07 05:37:48;;;;;;;;;;;;;;;15.54;100.00;97457.78;5146406;27;19978;-73
2023/08/07 05:40:16;;;;;;;;;;;;;;;15.71;100.00;97470.56;5145223;27;20033;-73
2023/08/07 05:42:42;;;;;;;;;;;;;;;15.58;100.00;97477.59;5142863;27;19924;-73
2023/08/07 05:45:09;;;;;;;;;;;;;;;15.70;100.00;97472.47;5142877;27;20267;-73
2023/08/07 05:47:36;;;;;;;;;;;;;;;15.79;100.00;97481.41;5138136;27;19931;-72
2023/08/07 05:50:02;;;;;;;;;;;;;;;15.53;100.00;97483.13;5146372;27;19998;-72
2023/08/07 05:52:29;;;;;;;;;;;;;;;15.57;100.00;97495.66;5142952;27;20290;-73
2023/08/07 05:54:55;;;;;;;;;;;;;;;15.63;100.00;97497.13;5142461;27;19992;-72
2023/08/07 05:57:23;;;;;;;;;;;;;;;15.86;100.00;97492.53;5144262;27;19998;-71
2023/08/07 05:59:49;;;;;;;;;;;;;;;15.73;100.00;97497.97;5145821;27;19991;-72
2023/08/07 06:02:15;;;;;;;;;;;;;;;15.83;100.00;97493.16;5143733;27;19929;-73
2023/08/07 06:04:42;;;;;;;;;;;;;;;15.86;100.00;97505.22;5142091;27;19951;-73
2023/08/07 06:07:08;;;;;;;;;;;;;;;15.89;100.00;97509.97;5142272;27;19983;-73
2023/08/07 06:09:34;;;;;;;;;;;;;;;15.86;100.00;97506.00;5145584;27;20023;-73
2023/08/07 06:12:01;;;;;;;;;;;;;;;15.98;100.00;97519.72;5145681;27;19928;-73
2023/08/07 06:14:29;;;;;;;;;;;;;;;16.01;100.00;97511.00;5142647;27;19991;-73
2023/08/07 06:16:57;;;;;;;;;;;;;;;15.84;100.00;97516.28;5133330;28;19924;-73
2023/08/07 06:19:24;;;;;;;;;;;;;;;15.83;100.00;97519.28;5144187;27;19924;-73
2023/08/07 06:21:50;;;;;;;;;;;;;;;15.88;100.00;97522.63;5145118;27;19962;-73
2023/08/07 06:24:17;;;;;;;;;;;;;;;15.95;100.00;97531.09;5143979;27;19923;-73
2023/08/07 06:26:43;;;;;;;;;;;;;;;16.04;100.00;97531.94;5141621;27;19955;-73
2023/08/07 06:29:09;;;;;;;;;;;;;;;16.12;100.00;97530.44;5141803;27;19958;-73
2023/08/07 06:31:37;;;;;;;;;;;;;;;16.09;100.00;97539.13;5144797;27;20459;-72
2023/08/07 06:34:03;;;;;;;;;;;;;;;16.09;100.00;97531.81;5126397;27;19923;-73
2023/08/07 06:36:30;;;;;;;;;;;;;;;16.08;100.00;97538.31;5141603;27;19970;-72
2023/08/07 06:38:56;;;;;;;;;;;;;;;16.15;100.00;97538.66;5141245;27;19931;-72
2023/08/07 06:41:22;;;;;;;;;;;;;;;15.85;100.00;97544.00;5143269;27;19924;-72
2023/08/07 06:43:49;;;;;;;;;;;;;;;15.93;100.00;97546.78;5144396;27;20105;-72
2023/08/07 06:46:16;;;;;;;;;;;;;;;16.05;100.00;97538.94;5134507;27;20403;-72
2023/08/07 06:48:43;;;;;;;;;;;;;;;15.92;100.00;97549.75;5140852;27;20011;-72
2023/08/07 06:51:10;;;;;;;;;;;;;;;16.05;100.00;97547.00;5141263;27;19983;-72
2023/08/07 06:53:36;;;;;;;;;;;;;;;15.94;100.00;97545.66;5144310;27;19924;-72
2023/08/07 06:56:03;;;;;;;;;;;;;;;15.83;100.00;97556.97;5144422;27;19994;-72
2023/08/07 06:58:29;;;;;;;;;;;;;;;15.86;100.00;97559.06;5141248;27;19924;-72
2023/08/07 07:00:56;;;;;;;;;;;;;;;15.86;100.00;97557.16;5141021;27;19951;-72
2023/08/07 07:03:22;;;;;;;;;;;;;;;15.85;100.00;97566.34;5142786;27;19983;-72
2023/08/07 07:05:51;;;;;;;;;;;;;;;15.93;100.00;97568.31;5144360;27;20018;-72
2023/08/07 07:08:17;;;;;;;;;;;;;;;15.92;100.00;97566.72;5143014;27;20337;-72
2023/08/07 07:10:43;;;;;;;;;;;;;;;15.98;100.00;97573.56;5141365;27;19953;-72
2023/08/07 07:13:10;;;;;;;;;;;;;;;15.91;100.00;97573.19;5122536;28;19995;-72
2023/08/07 07:15:36;;;;;;;;;;;;;;;15.91;100.00;97580.47;5140343;27;19977;-72
2023/08/07 07:18:03;;;;;;;;;;;;;;;15.98;100.00;97576.28;5140276;27;20059;-72
2023/08/07 07:20:29;;;;;;;;;;;;;;;15.98;100.00;97576.28;5122825;28;19931;-72
2023/08/07 07:22:57;;;;;;;;;;;;;;;15.94;100.00;97575.28;5122477;28;19924;-72
2023/08/07 07:25:23;;;;;;;;;;;;;;;16.08;100.00;97592.19;5143118;27;19958;-72
2023/08/07 07:27:49;;;;;;;;;;;;;;;16.06;100.00;97583.59;5144192;27;19923;-72
2023/08/07 07:30:16;;;;;;;;;;;;;;;16.04;100.00;97585.03;5142418;27;19979;-72
2023/08/07 07:32:42;;;;;;;;;;;;;;;16.01;100.00;97597.19;5140324;27;19978;-72
2023/08/07 07:35:09;;;;;;;;;;;;;;;15.95;100.00;97589.53;5140463;27;19988;-73
2023/08/07 07:37:35;;;;;;;;;;;;;;;16.08;100.00;97592.19;5144063;27;19924;-72
2023/08/07 07:40:03;;;;;;;;;;;;;;;15.93;100.00;97603.31;5143887;27;19928;-72
2023/08/07 07:42:29;;;;;;;;;;;;;;;16.01;100.00;97597.19;5140550;27;19924;-72
2023/08/07 07:44:55;;;;;;;;;;;;;;;15.92;100.00;97600.94;5140187;27;19978;-73
2023/08/07 07:47:22;;;;;;;;;;;;;;;15.85;100.00;97609.41;5142288;27;20339;-72
2023/08/07 07:49:48;;;;;;;;;;;;;;;15.88;100.00;97614.19;5143738;27;19959;-72
2023/08/07 07:52:14;;;;;;;;;;;;;;;16.01;100.00;97615.25;5124156;28;19963;-73
2023/08/07 07:54:41;;;;;;;;;;;;;;;16.03;100.00;97623.84;5140255;28;19955;-72
2023/08/07 07:57:08;;;;;;;;;;;;;;;16.06;100.00;97625.94;5139792;28;19970;-72
2023/08/07 07:59:35;;;;;;;;;;;;;;;15.97;100.00;97639.31;5131348;28;20006;-72
2023/08/07 08:02:01;;;;;;;;;;;;;;;16.05;100.00;97635.91;5113429;28;19963;-72
2023/08/07 08:04:28;;;;;;;;;;;;;;;16.04;100.00;97637.00;5131343;28;19934;-72
2023/08/07 08:06:54;;;;;;;;;;;;;;;15.86;100.00;97637.94;5131448;28;19923;-72
2023/08/07 08:09:20;;;;;;;;;;;;;;;15.97;100.00;97639.31;5131394;28;19963;-72
2023/08/07 08:11:47;;;;;;;;;;;;;;;16.10;100.00;97645.75;5131567;28;19951;-72
2023/08/07 08:14:14;;;;;;;;;;;;;;;16.11;100.00;97648.16;5131162;28;19954;-70
2023/08/07 08:16:41;;;;;;;;;;;;;;;16.09;100.00;97647.66;5131273;28;19991;-72
2023/08/07 08:19:09;;;;;;;;;;;;;;;16.20;100.00;97648.22;5131615;28;19931;-72
2023/08/07 08:21:35;;;;;;;;;;;;;;;16.12;100.00;97648.97;5139835;28;19931;-71
2023/08/07 08:24:02;;;;;;;;;;;;;;;16.04;100.00;97655.84;5139790;28;19998;-72
2023/08/07 08:26:28;;;;;;;;;;;;;;;16.06;100.00;97655.56;5128486;27;19991;-72
2023/08/07 08:28:54;;;;;;;;;;;;;;;16.03;100.00;97662.31;5147679;27;19951;-72
2023/08/07 08:31:23;;;;;;;;;;;;;;;15.98;100.00;97665.16;5145488;27;19970;-71
2023/08/07 08:33:50;;;;;;;;;;;;;;;15.89;100.00;97660.78;5143584;27;19995;-71
2023/08/07 08:36:16;;;;;;;;;;;;;;;15.85;100.00;97673.25;5144884;27;19951;-71
2023/08/07 08:38:43;;;;;;;;;;;;;;;15.88;100.00;97665.38;5147445;27;19928;-71
2023/08/07 08:41:09;;;;;;;;;;;;;;;16.01;100.00;97677.22;5146997;27;20404;-71
2023/08/07 08:43:36;;;;;;;;;;;;;;;15.98;100.00;97683.19;5143397;27;19924;-71
2023/08/07 08:46:05;;;;;;;;;;;;;;;15.93;100.00;97676.03;5141869;27;19928;-71
2023/08/07 08:48:35;;;;;;;;;;;;;;;15.98;100.00;97678.63;5120011;27;19948;-71
2023/08/07 08:51:03;;;;;;;;;;;;;;;15.96;100.00;97690.78;5146991;27;20533;-71
2023/08/07 08:53:30;;;;;;;;;;;;;;;16.07;100.00;97687.56;5143981;27;19930;-71
2023/08/07 08:55:56;;;;;;;;;;;;;;;15.99;100.00;97695.56;5143233;27;19957;-71
2023/08/07 08:58:23;;;;;;;;;;;;;;;16.05;100.00;97699.75;5145404;27;19986;-71
2023/08/07 09:00:50;;;;;;;;;;;;;;;15.98;100.00;97702.84;5146976;27;19924;-71
2023/08/07 09:03:17;;;;;;;;;;;;;;;15.99;100.00;97706.34;5145621;27;19962;-71
2023/08/07 09:05:46;;;;;;;;;;;;;;;15.99;100.00;97707.16;5143457;27;19924;-71
2023/08/07 09:08:13;;;;;;;;;;;;;;;15.86;100.00;97721.44;5144283;27;19966;-71
2023/08/07 09:10:40;;;;;;;;;;;;;;;15.86;100.00;97715.25;5147056;27;19963;-72
2023/08/07 09:13:08;;;;;;;;;;;;;;;15.86;100.00;97717.94;5147010;27;19959;-72
2023/08/07 09:15:36;;;;;;;;;;;;;;;15.60;100.00;97720.34;5123450;28;19966;-72
2023/08/07 09:18:03;;;;;;;;;;;;;;;15.72;100.00;97731.41;5142468;27;19987;-72
2023/08/07 09:20:30;;;;;;;;;;;;;;;15.73;100.00;97724.13;5143499;27;19946;-71
2023/08/07 09:22:58;;;;;;;;;;;;;;;15.71;100.00;97735.22;5143119;27;20275;-71
2023/08/07 09:25:28;;;;;;;;;;;;;;;15.75;100.00;97730.03;5145358;27;19947;-71
2023/08/07 09:27:55;;;;;;;;;;;;;;;15.63;100.00;97735.88;5146516;27;19923;-72
2023/08/07 09:30:21;;;;;;;;;;;;;;;15.80;100.00;97746.06;5144149;27;20392;-72
2023/08/07 09:32:48;;;;;;;;;;;;;;;15.56;100.00;97747.09;5142624;27;19924;-72
2023/08/07 09:35:15;;;;;;;;;;;;;;;15.70;100.00;97733.59;5143486;27;19924;-72
2023/08/07 09:37:43;;;;;;;;;;;;;;;15.79;100.00;97741.78;5145144;27;19965;-72
2023/08/07 09:40:15;;;;;;;;;;;;;;;15.71;100.00;97747.88;5145657;27;19923;-73
2023/08/07 09:42:41;;;;;;;;;;;;;;;15.77;100.00;97752.06;5142398;27;19923;-72
2023/08/07 09:45:19;;;;;;;;;;;;;;;15.63;100.00;97752.03;5142058;27;20295;-72
2023/08/07 09:47:46;;;;;;;;;;;;;;;15.71;100.00;97758.63;5139095;27;19970;-70
2023/08/07 09:50:16;;;;;;;;;;;;;;;15.73;100.00;97749.16;5126758;27;19931;-71
2023/08/07 09:52:42;;;;;;;;;;;;;;;15.80;100.00;97756.84;5141969;27;20014;-71
2023/08/07 09:55:08;;;;;;;;;;;;;;;15.69;100.00;97756.22;5142056;27;19990;-71
2023/08/07 09:57:37;;;;;;;;;;;;;;;15.61;100.00;97757.75;5145623;27;19986;-71
2023/08/07 10:00:11;;;;;;;;;;;;;;;15.64;100.00;97759.84;5145458;27;19969;-71
2023/08/07 10:02:37;;;;;;;;;;;;;;;15.75;100.00;97767.72;5141989;27;19924;-72
2023/08/07 10:05:05;;;;;;;;;;;;;;;15.87;100.00;97765.31;5141976;27;19928;-72
2023/08/07 10:07:31;;;;;;;;;;;;;;;15.81;100.00;97769.22;5145097;27;19927;-72
2023/08/07 10:09:59;;;;;;;;;;;;;;;15.90;100.00;97765.53;5145314;27;19999;-72
2023/08/07 10:12:26;;;;;;;;;;;;;;;15.86;100.00;97767.22;5142769;27;19923;-72
2023/08/07 10:14:54;;;;;;;;;;;;;;;15.90;100.00;97762.03;5141673;27;19947;-72
2023/08/07 10:17:22;;;;;;;;;;;;;;;16.07;100.00;97773.78;5134588;27;19970;-71
2023/08/07 10:19:48;;;;;;;;;;;;;;;16.06;100.00;97772.16;5145032;27;19924;-72
2023/08/07 10:22:16;;;;;;;;;;;;;;;16.00;100.00;97765.28;5143934;27;19934;-72
2023/08/07 10:24:43;;;;;;;;;;;;;;;15.70;100.00;97767.81;5141125;27;19945;-72
2023/08/07 10:27:10;;;;;;;;;;;;;;;15.87;100.00;97774.19;5141550;27;19977;-71
2023/08/07 10:29:37;;;;;;;;;;;;;;;15.97;100.00;97779.34;5144794;27;20074;-71
2023/08/07 10:32:06;;;;;;;;;;;;;;;16.15;100.00;97785.75;5144600;27;19953;-72
2023/08/07 10:34:34;;;;;;;;;;;;;;;16.13;100.00;97777.16;5141462;27;19924;-72
2023/08/07 10:37:00;;;;;;;;;;;;;;;16.12;100.00;97773.66;5141279;27;19946;-71
2023/08/07 10:39:27;;;;;;;;;;;;;;;16.12;100.00;97784.44;5143764;27;19991;-71
2023/08/07 10:41:54;;;;;;;;;;;;;;;15.91;100.00;97775.16;5144602;27;19935;-72
2023/08/07 10:44:21;;;;;;;;;;;;;;;16.05;100.00;97778.66;5142583;27;19978;-72
2023/08/07 10:46:48;;;;;;;;;;;;;;;15.97;100.00;97787.44;5132693;28;19923;-73
2023/08/07 10:49:30;;;;;;;;;;;;;;;16.16;100.00;97777.34;5141532;27;19951;-73
2023/08/07 10:51:57;;;;;;;;;;;;;;;16.03;100.00;97777.38;5144421;27;19967;-73
2023/08/07 10:54:24;;;;;;;;;;;;;;;16.02;100.00;97789.25;5142162;27;19923;-73
2023/08/07 10:56:53;;;;;;;;;;;;;;;16.13;100.00;97787.94;5140785;27;20014;-73
2023/08/07 10:59:19;;;;;;;;;;;;;;;16.08;100.00;97786.16;5142350;27;20010;-73
2023/08/07 11:01:51;;;;;;;;;;;;;;;15.98;100.00;97790.94;5125865;27;19983;-73
2023/08/07 11:04:19;;;;;;;;;;;;;;;15.86;100.00;97787.94;5142827;27;20000;-73
2023/08/07 11:06:48;;;;;;;;;;;;;;;16.03;100.00;97780.84;5140673;27;19969;-73
2023/08/07 11:09:14;;;;;;;;;;;;;;;15.92;100.00;97787.56;5141362;27;19978;-73
2023/08/07 11:11:41;;;;;;;;;;;;;;;15.99;100.00;97790.66;5144201;27;19923;-72
2023/08/07 11:14:08;;;;;;;;;;;;;;;16.12;100.00;97792.50;5125783;27;19924;-73
2023/08/07 11:16:34;;;;;;;;;;;;;;;15.95;100.00;97784.25;5131960;28;19996;-73
2023/08/07 11:19:01;;;;;;;;;;;;;;;16.14;100.00;97789.53;5140504;27;19951;-73
2023/08/07 11:21:29;;;;;;;;;;;;;;;16.19;100.00;97792.09;5124725;27;19924;-73
2023/08/07 11:23:55;;;;;;;;;;;;;;;16.08;100.00;97791.53;5144131;27;20002;-73
2023/08/07 11:26:24;;;;;;;;;;;;;;;16.10;100.00;97792.03;5141993;27;19958;-73
2023/08/07 11:28:51;;;;;;;;;;;;;;;16.25;100.00;97790.13;5140460;27;19959;-73
2023/08/07 11:31:18;;;;;;;;;;;;;;;16.21;100.00;97798.00;5141653;27;20350;-73
2023/08/07 11:33:44;;;;;;;;;;;;;;;16.32;100.00;97785.91;5143735;27;19979;-73
2023/08/07 11:36:11;;;;;;;;;;;;;;;16.29;100.00;97785.69;5143317;27;19923;-73
2023/08/07 11:38:39;;;;;;;;;;;;;;;16.34;100.00;97793.69;5140067;27;19934;-73
2023/08/07 11:41:07;;;;;;;;;;;;;;;16.20;100.00;97789.13;5140166;27;19928;-73
2023/08/07 11:43:34;;;;;;;;;;;;;;;16.10;100.00;97793.91;5140197;27;19987;-73
2023/08/07 11:46:01;;;;;;;;;;;;;;;16.15;100.00;97791.91;5138489;27;19935;-73
2023/08/07 11:48:28;;;;;;;;;;;;;;;16.31;100.00;97783.53;5140103;27;19930;-73
2023/08/07 11:50:55;;;;;;;;;;;;;;;16.38;100.00;97795.47;5140212;27;20257;-73
2023/08/07 11:53:21;;;;;;;;;;;;;;;16.40;100.00;97793.25;5142019;27;19931;-73
2023/08/07 11:55:52;;;;;;;;;;;;;;;16.39;100.00;97801.66;5143582;27;19924;-73
2023/08/07 11:58:18;;;;;;;;;;;;;;;16.36;100.00;97791.50;5142157;27;19930;-73
2023/08/07 12:00:45;;;;;;;;;;;;;;;16.36;100.00;97796.88;5139486;28;20541;-73
2023/08/07 12:03:27;;;;;;;;;;;;;;;16.39;100.00;97790.88;5140720;28;19928;-73
2023/08/07 12:05:53;;;;;;;;;;;;;;;16.22;100.00;97804.19;5122362;28;19927;-73
2023/08/07 12:08:20;;;;;;;;;;;;;;;16.29;100.00;97805.38;5141859;28;19965;-73
2023/08/07 12:10:50;;;;;;;;;;;;;;;16.24;100.00;97810.88;5140037;28;19970;-73
2023/08/07 12:13:17;;;;;;;;;;;;;;;16.36;100.00;97813.06;5141192;28;19935;-73
2023/08/07 12:15:43;;;;;;;;;;;;;;;16.39;100.00;97823.22;5138439;28;19966;-73
2023/08/07 12:18:11;;;;;;;;;;;;;;;16.43;100.00;97822.31;5139433;28;19958;-73
2023/08/07 12:20:38;;;;;;;;;;;;;;;16.41;100.00;97815.63;5121421;28;19934;-72
2023/08/07 12:23:04;;;;;;;;;;;;;;;16.45;100.00;97827.41;5140023;28;19923;-73
2023/08/07 12:25:30;;;;;;;;;;;;;;;16.36;100.00;97834.59;5124587;28;19978;-72
2023/08/07 12:27:58;;;;;;;;;;;;;;;16.41;100.00;97840.69;5143281;28;19965;-73
2023/08/07 12:30:25;;;;;;;;;;;;;;;16.29;100.00;97823.44;5140873;28;19973;-71
2023/08/07 12:32:51;;;;;;;;;;;;;;;16.27;100.00;97822.94;5139774;28;19923;-72
2023/08/07 12:35:18;;;;;;;;;;;;;;;16.20;100.00;97818.75;5122874;28;19998;-72